Oak Grove, Arkansas
Current Conditions -  °F | °C
As of 5:15 AM on Sunday 25 Jan 2015 (Local Time) from KBBG Reporting Station
Light Rain Light Rain  
Wind Chill: 39°   Ceiling: 4800
Heat Index: 45°   Visibility: 9mi
Dew Point: 39°   Wind: 12mph
Humidity: 81%   Direction: 240°WSW
Pressure: 29.7"   Gusts: 18mph
Location:  36.46°N, 93.44°W
Report Text: KBBG 251115Z AUTO 24010G16KT 9SM -RA OVC048 07/04 A2970 RMK AO2
Loading
Personal Weather Stations






























Interactive Weather Map New forecast layout! Learn more

10-Day Weather Forecast

Advertisements
Track Severe Weather on mobile